createdAt,value
2022-12-13T00:00:14.258Z,2.37
2022-12-13T00:01:17.417Z,0.57
2022-12-13T00:02:20.777Z,0.71
2022-12-13T00:03:23.896Z,1.29
2022-12-13T00:04:27.125Z,2.00
2022-12-13T00:05:30.182Z,2.00
2022-12-13T00:06:33.330Z,1.57
2022-12-13T00:07:36.413Z,0.57
2022-12-13T00:08:40.100Z,0.00
2022-12-13T00:09:43.173Z,0.00
2022-12-13T00:10:46.285Z,0.00
2022-12-13T00:11:49.227Z,0.43
2022-12-13T00:12:52.219Z,1.00
2022-12-13T00:13:55.411Z,0.83
2022-12-13T00:14:58.590Z,0.50
2022-12-13T00:16:01.556Z,1.00
2022-12-13T00:17:04.632Z,0.33
2022-12-13T00:18:07.906Z,0.00
2022-12-13T00:19:11.001Z,1.00
2022-12-13T00:20:14.271Z,1.57
2022-12-13T00:21:17.351Z,1.00
2022-12-13T00:22:20.535Z,1.71
2022-12-13T00:23:23.630Z,1.00
2022-12-13T00:24:26.698Z,1.29
2022-12-13T00:25:29.774Z,1.00
2022-12-13T00:26:33.261Z,1.00
2022-12-13T00:27:36.409Z,1.43
2022-12-13T00:28:39.626Z,3.00
2022-12-13T00:29:42.809Z,2.86
2022-12-13T00:30:45.642Z,0.33
2022-12-13T00:31:59.570Z,2.67
2022-12-13T00:32:53.273Z,3.75
2022-12-13T00:33:56.456Z,1.83
2022-12-13T00:34:59.640Z,4.00
2022-12-13T00:36:02.728Z,4.67
2022-12-13T00:37:05.795Z,3.50
2022-12-13T00:38:08.885Z,2.57
2022-12-13T00:39:11.859Z,2.43
2022-12-13T00:40:15.066Z,2.14
2022-12-13T00:41:18.114Z,1.00
2022-12-13T00:42:21.216Z,0.43
2022-12-13T00:43:24.271Z,0.67
2022-12-13T00:44:27.380Z,0.67
2022-12-13T00:45:30.430Z,0.33
2022-12-13T00:46:33.451Z,0.57
2022-12-13T00:47:36.806Z,0.00
2022-12-13T00:48:39.879Z,0.00
2022-12-13T00:49:43.161Z,0.00
2022-12-13T00:50:46.239Z,0.86
2022-12-13T00:51:49.194Z,0.00
2022-12-13T00:52:52.216Z,1.29
2022-12-13T00:53:55.495Z,0.67
2022-12-13T00:54:58.660Z,0.00
2022-12-13T00:56:02.057Z,0.00
2022-12-13T00:57:05.226Z,0.43
2022-12-13T00:58:08.385Z,1.14
2022-12-13T00:59:11.381Z,1.14
2022-12-13T01:00:14.769Z,0.00
2022-12-13T01:01:18.124Z,1.00
2022-12-13T01:02:21.256Z,1.14
2022-12-13T01:03:24.661Z,1.00
2022-12-13T01:04:27.910Z,1.00
2022-12-13T01:06:11.122Z,1.33
2022-12-13T01:06:35.089Z,1.00
2022-12-13T01:07:38.072Z,1.00
2022-12-13T01:08:41.013Z,1.00
2022-12-13T01:09:43.922Z,0.43
2022-12-13T01:10:47.421Z,0.00
2022-12-13T01:11:50.798Z,0.14
2022-12-13T01:12:54.089Z,0.57
2022-12-13T01:13:57.465Z,0.43
2022-12-13T01:15:00.749Z,0.71
2022-12-13T01:16:04.031Z,0.14
2022-12-13T01:17:07.659Z,0.00
2022-12-13T01:18:10.808Z,0.00
2022-12-13T01:19:14.302Z,0.29
2022-12-13T01:20:17.701Z,0.00
2022-12-13T01:21:22.305Z,0.86
2022-12-13T01:22:25.697Z,0.13
2022-12-13T01:23:28.970Z,0.00
2022-12-13T01:24:32.517Z,0.43
2022-12-13T01:25:35.641Z,0.57
2022-12-13T01:26:38.722Z,0.00
2022-12-13T01:27:41.800Z,0.00
2022-12-13T01:28:48.261Z,0.00
2022-12-13T01:29:51.549Z,0.00
2022-12-13T01:30:54.976Z,0.00
2022-12-13T01:31:58.523Z,0.00
2022-12-13T01:33:01.808Z,0.57
2022-12-13T01:34:06.111Z,0.50
2022-12-13T01:35:09.297Z,0.00
2022-12-13T01:36:12.798Z,0.43
2022-12-13T01:37:16.073Z,0.57
2022-12-13T01:38:19.148Z,0.14
2022-12-13T01:39:26.457Z,0.00
2022-12-13T01:40:26.709Z,0.00
2022-12-13T01:41:29.725Z,0.83
2022-12-13T01:42:32.808Z,1.00
2022-12-13T01:43:35.751Z,1.17
2022-12-13T01:44:38.967Z,1.00
2022-12-13T01:45:42.147Z,1.43
2022-12-13T01:46:45.115Z,2.00
2022-12-13T01:47:48.194Z,1.86
2022-12-13T01:48:51.270Z,1.00
2022-12-13T01:49:54.557Z,0.86
2022-12-13T01:50:57.843Z,0.00
2022-12-13T01:52:01.232Z,0.43
2022-12-13T01:53:04.201Z,0.43
2022-12-13T01:54:07.185Z,0.71
2022-12-13T01:55:10.570Z,0.57
2022-12-13T01:56:13.607Z,0.00
2022-12-13T01:57:16.731Z,0.00
2022-12-13T01:58:20.218Z,0.29
2022-12-13T01:59:23.602Z,0.71
2022-12-13T02:00:26.812Z,1.43
2022-12-13T02:01:30.127Z,1.57
2022-12-13T02:02:33.464Z,0.57
2022-12-13T02:03:36.429Z,0.00
2022-12-13T02:04:44.328Z,0.33
2022-12-13T02:05:46.993Z,0.88
2022-12-13T02:06:50.281Z,0.62
2022-12-13T02:07:53.644Z,0.67
2022-12-13T02:08:56.979Z,0.43
2022-12-13T02:10:00.451Z,0.57
2022-12-13T02:11:03.833Z,0.43
2022-12-13T02:12:07.122Z,1.00
2022-12-13T02:13:10.192Z,0.67
2022-12-13T02:14:16.662Z,0.57
2022-12-13T02:15:20.044Z,0.00
2022-12-13T02:16:23.465Z,0.00
2022-12-13T02:17:26.808Z,0.71
2022-12-13T02:18:30.208Z,1.00
2022-12-13T02:19:33.483Z,0.86
2022-12-13T02:20:36.765Z,0.57
2022-12-13T02:21:40.163Z,0.86
2022-12-13T02:22:43.334Z,1.14
2022-12-13T02:23:46.409Z,0.00
2022-12-13T02:24:49.899Z,0.00
2022-12-13T02:25:53.080Z,0.00
2022-12-13T02:26:56.554Z,0.00
2022-12-13T02:28:00.691Z,0.00
2022-12-13T02:29:04.379Z,0.50
2022-12-13T02:30:07.758Z,1.00
2022-12-13T02:31:11.190Z,0.86
2022-12-13T02:32:14.331Z,0.43
2022-12-13T02:33:21.717Z,0.14
2022-12-13T02:34:22.028Z,0.00
2022-12-13T02:35:25.305Z,0.00
2022-12-13T02:36:28.594Z,0.00
2022-12-13T02:37:32.690Z,0.00
2022-12-13T02:38:35.992Z,0.43
2022-12-13T02:39:39.154Z,0.29
2022-12-13T02:40:42.334Z,0.86
2022-12-13T02:41:45.520Z,1.00
2022-12-13T02:42:48.705Z,0.57
2022-12-13T02:43:51.997Z,0.00
2022-12-13T02:44:56.502Z,0.00
2022-12-13T02:45:59.828Z,0.00
2022-12-13T02:47:03.553Z,0.00
2022-12-13T02:48:06.970Z,0.00
2022-12-13T02:49:10.262Z,0.14
2022-12-13T02:50:13.661Z,1.00
2022-12-13T02:51:16.994Z,1.00
2022-12-13T02:52:22.610Z,0.83
2022-12-13T02:53:24.550Z,0.75
2022-12-13T02:54:28.108Z,0.86
2022-12-13T02:55:31.346Z,0.00
2022-12-13T02:56:34.474Z,0.00
2022-12-13T02:57:37.858Z,0.86
2022-12-13T02:58:40.939Z,1.86
2022-12-13T02:59:44.138Z,0.71
2022-12-13T03:00:47.505Z,0.29
2022-12-13T03:03:04.671Z,0.00
2022-12-13T03:04:08.024Z,0.00
2022-12-13T03:05:11.293Z,0.43
2022-12-13T03:06:14.682Z,1.14
2022-12-13T03:07:18.169Z,0.00
2022-12-13T03:08:21.342Z,0.00
2022-12-13T03:09:24.681Z,0.00
2022-12-13T03:10:27.924Z,0.00
2022-12-13T03:11:31.160Z,0.29
2022-12-13T03:12:34.418Z,0.00
2022-12-13T03:13:37.262Z,0.00
2022-12-13T03:14:40.302Z,0.43
2022-12-13T03:15:43.438Z,0.00
2022-12-13T03:16:46.815Z,0.00
2022-12-13T03:17:49.886Z,0.43
2022-12-13T03:18:53.167Z,0.57
2022-12-13T03:19:56.456Z,0.00
2022-12-13T03:20:59.738Z,0.00
2022-12-13T03:22:03.017Z,0.00
2022-12-13T03:23:06.511Z,0.00
2022-12-13T03:24:10.303Z,0.43
2022-12-13T03:25:13.732Z,1.00
2022-12-13T03:26:17.901Z,0.13
2022-12-13T03:27:21.080Z,0.00
2022-12-13T03:28:24.362Z,0.00
2022-12-13T03:29:27.951Z,0.00
2022-12-13T03:30:31.222Z,0.00
2022-12-13T03:31:34.560Z,0.00
2022-12-13T03:32:38.034Z,0.00
2022-12-13T03:33:41.405Z,0.14
2022-12-13T03:34:46.763Z,0.00
2022-12-13T03:35:48.721Z,0.00
2022-12-13T03:36:51.973Z,0.00
2022-12-13T03:37:55.256Z,0.43
2022-12-13T03:40:06.648Z,0.50
2022-12-13T03:41:10.021Z,0.00
2022-12-13T03:42:13.718Z,0.00
2022-12-13T03:43:22.370Z,0.00
2022-12-13T03:44:21.310Z,0.50
2022-12-13T03:45:24.600Z,0.57
2022-12-13T03:46:27.952Z,0.00
2022-12-13T03:47:31.267Z,0.00
2022-12-13T03:49:42.345Z,0.50
2022-12-13T03:51:53.528Z,0.00
2022-12-13T03:52:56.627Z,0.00
2022-12-13T03:53:59.779Z,0.00
2022-12-13T03:56:18.844Z,0.37
2022-12-13T03:57:22.117Z,0.57
2022-12-13T03:58:25.415Z,0.33
2022-12-13T03:59:28.591Z,1.00
2022-12-13T04:00:31.768Z,1.33
2022-12-13T04:01:36.376Z,0.33
2022-12-13T04:02:39.552Z,0.00
2022-12-13T04:03:42.741Z,0.00
2022-12-13T04:04:45.730Z,0.43
2022-12-13T04:05:48.918Z,0.57
2022-12-13T04:06:52.299Z,0.00
2022-12-13T04:08:00.633Z,0.00
2022-12-13T04:09:00.007Z,0.50
2022-12-13T04:10:03.068Z,1.00
2022-12-13T04:11:06.975Z,0.62
2022-12-13T04:12:10.062Z,1.33
2022-12-13T04:13:13.235Z,1.33
2022-12-13T04:15:26.662Z,0.50
2022-12-13T04:16:30.198Z,0.67
2022-12-13T04:17:33.233Z,0.00
2022-12-13T04:18:36.308Z,0.00
2022-12-13T04:20:55.692Z,0.00
2022-12-13T04:21:58.868Z,0.00
2022-12-13T04:23:09.815Z,0.43
2022-12-13T04:24:06.645Z,1.00
2022-12-13T04:25:10.139Z,0.57
2022-12-13T04:26:13.428Z,0.00
2022-12-13T04:27:16.921Z,0.00
2022-12-13T04:28:22.410Z,0.00
2022-12-13T04:29:24.509Z,0.00
2022-12-13T04:30:28.005Z,0.00
2022-12-13T04:31:31.266Z,0.43
2022-12-13T04:32:34.460Z,1.00
2022-12-13T04:33:37.252Z,0.57
2022-12-13T04:34:40.424Z,0.17
2022-12-13T04:35:43.813Z,0.00
2022-12-13T04:38:03.170Z,0.00
2022-12-13T04:39:22.607Z,0.00
2022-12-13T04:40:10.937Z,0.50
2022-12-13T04:41:14.265Z,0.57
2022-12-13T04:42:17.649Z,0.00
2022-12-13T04:43:20.940Z,0.00
2022-12-13T04:44:28.729Z,0.00
2022-12-13T04:45:28.758Z,1.00
2022-12-13T04:46:31.911Z,1.14
2022-12-13T04:47:35.412Z,0.00
2022-12-13T04:48:38.681Z,0.43
2022-12-13T04:49:41.968Z,0.14
2022-12-13T04:50:45.967Z,0.00
2022-12-13T04:51:48.951Z,0.33
2022-12-13T04:52:52.129Z,0.33
2022-12-13T04:53:55.308Z,0.57
2022-12-13T04:54:58.594Z,0.14
2022-12-13T04:56:01.881Z,0.00
2022-12-13T04:57:05.162Z,0.33
2022-12-13T04:58:08.448Z,0.57
2022-12-13T04:59:11.930Z,0.43
2022-12-13T05:00:15.339Z,0.57
2022-12-13T05:01:18.469Z,0.00
2022-12-13T05:02:24.131Z,0.00
2022-12-13T05:03:26.100Z,0.00
2022-12-13T05:04:32.742Z,0.17
2022-12-13T05:05:33.611Z,0.13
2022-12-13T05:07:49.860Z,0.00
2022-12-13T05:08:53.068Z,0.33
2022-12-13T05:09:56.266Z,0.67
2022-12-13T05:10:59.221Z,0.17
2022-12-13T05:13:18.805Z,0.00
2022-12-13T05:14:23.081Z,0.00
2022-12-13T05:15:27.003Z,0.00
2022-12-13T05:16:30.960Z,0.00
2022-12-13T05:17:34.198Z,1.00
2022-12-13T05:18:37.364Z,0.86
2022-12-13T05:19:40.547Z,1.00
2022-12-13T05:20:43.733Z,0.33
2022-12-13T05:21:46.913Z,0.43
2022-12-13T05:22:50.406Z,0.57
2022-12-13T05:23:54.108Z,0.57
2022-12-13T05:24:57.376Z,0.29
2022-12-13T05:26:00.700Z,0.67
2022-12-13T05:27:24.048Z,0.86
2022-12-13T05:28:08.877Z,1.00
2022-12-13T05:29:12.572Z,0.50
2022-12-13T05:30:16.460Z,0.29
2022-12-13T05:31:23.242Z,0.14
2022-12-13T05:32:24.257Z,0.00
2022-12-13T05:33:27.764Z,0.00
2022-12-13T05:34:31.033Z,0.86
2022-12-13T05:35:34.419Z,1.14
2022-12-13T05:36:37.821Z,0.00
2022-12-13T05:37:41.132Z,0.86
2022-12-13T05:38:44.180Z,0.50
2022-12-13T05:41:03.958Z,0.50
2022-12-13T05:42:07.131Z,1.14
2022-12-13T05:43:21.347Z,0.00
2022-12-13T05:44:14.937Z,0.00
2022-12-13T05:45:18.450Z,0.00
2022-12-13T05:46:21.940Z,0.00
2022-12-13T05:47:25.001Z,0.57
2022-12-13T05:48:28.166Z,0.00
2022-12-13T05:49:31.152Z,0.43
2022-12-13T05:50:34.220Z,1.00
2022-12-13T05:51:37.815Z,0.57
2022-12-13T05:52:41.000Z,0.43
2022-12-13T05:55:12.797Z,0.00
2022-12-13T05:56:04.568Z,0.37
2022-12-13T05:57:07.866Z,0.33
2022-12-13T05:58:13.156Z,1.43
2022-12-13T05:59:15.555Z,1.25
2022-12-13T06:00:29.300Z,0.86
2022-12-13T06:01:23.145Z,0.50
2022-12-13T06:02:26.663Z,0.33
2022-12-13T06:03:30.140Z,0.71
2022-12-13T06:04:33.099Z,0.71
2022-12-13T06:05:36.395Z,0.00
2022-12-13T06:06:39.766Z,0.00
2022-12-13T06:07:42.969Z,0.00
2022-12-13T06:08:46.202Z,0.43
2022-12-13T06:09:49.329Z,0.57
2022-12-13T06:12:03.259Z,0.13
2022-12-13T06:13:21.867Z,0.00
2022-12-13T06:14:22.329Z,0.00
2022-12-13T06:15:21.934Z,0.50
2022-12-13T06:16:22.508Z,0.00
2022-12-13T06:17:23.370Z,0.13
2022-12-13T06:18:26.648Z,1.29
2022-12-13T06:19:29.938Z,1.00
2022-12-13T06:21:46.569Z,1.00
2022-12-13T06:22:49.718Z,1.14
2022-12-13T06:23:52.900Z,0.71
2022-12-13T06:24:55.979Z,1.14
2022-12-13T06:25:59.060Z,0.57
2022-12-13T06:27:02.345Z,0.14
2022-12-13T06:28:05.321Z,0.67
2022-12-13T06:29:08.537Z,1.33
2022-12-13T06:30:11.689Z,0.00
2022-12-13T06:31:14.909Z,0.00
2022-12-13T06:32:17.960Z,0.17
2022-12-13T06:33:23.216Z,0.00
2022-12-13T06:36:45.733Z,0.00
2022-12-13T06:37:49.009Z,0.43
2022-12-13T06:38:52.306Z,0.57
2022-12-13T06:39:55.475Z,0.86
2022-12-13T06:40:58.866Z,1.57
2022-12-13T06:42:03.492Z,0.88
2022-12-13T06:43:06.770Z,0.50
2022-12-13T06:44:10.247Z,0.29
2022-12-13T06:45:13.636Z,0.71
2022-12-13T06:46:16.759Z,0.57
2022-12-13T06:47:32.135Z,0.14
2022-12-13T06:48:24.434Z,0.62
2022-12-13T06:49:27.605Z,0.57
2022-12-13T06:50:32.114Z,0.75
2022-12-13T06:51:35.091Z,1.14
2022-12-13T06:52:38.719Z,0.00
2022-12-13T06:53:41.962Z,0.00
2022-12-13T06:54:45.041Z,0.43
2022-12-13T06:55:48.431Z,1.67
2022-12-13T06:56:51.832Z,0.00
2022-12-13T06:57:55.303Z,0.43
2022-12-13T06:59:02.001Z,1.43
2022-12-13T07:00:02.910Z,0.00
2022-12-13T07:02:24.846Z,0.88
2022-12-13T07:03:18.320Z,1.00
2022-12-13T07:04:30.288Z,0.71
2022-12-13T07:05:26.280Z,0.50
2022-12-13T07:06:29.663Z,1.00
2022-12-13T07:07:33.069Z,0.57
2022-12-13T07:09:44.470Z,0.75
2022-12-13T07:10:47.535Z,1.00
2022-12-13T07:11:52.593Z,0.88
2022-12-13T07:12:56.023Z,0.50
2022-12-13T07:13:59.225Z,0.00
2022-12-13T07:15:02.501Z,0.00
2022-12-13T07:16:21.887Z,0.00
2022-12-13T07:17:32.583Z,1.00
2022-12-13T07:18:29.560Z,1.87
2022-12-13T07:19:42.271Z,2.00
2022-12-13T07:20:37.247Z,1.50
2022-12-13T07:21:41.836Z,0.57
2022-12-13T07:22:48.460Z,0.00
2022-12-13T07:23:55.110Z,0.00
2022-12-13T07:24:53.368Z,0.00
2022-12-13T07:25:56.740Z,0.43
2022-12-13T07:26:59.927Z,1.00
2022-12-13T07:28:03.581Z,0.86
2022-12-13T07:29:06.801Z,1.57
2022-12-13T07:30:09.992Z,1.00
2022-12-13T07:31:13.100Z,0.67
2022-12-13T07:32:16.365Z,0.67
2022-12-13T07:33:22.520Z,2.00
2022-12-13T07:34:23.935Z,1.00
2022-12-13T07:35:27.329Z,1.86
2022-12-13T07:36:30.506Z,1.57
2022-12-13T07:37:33.704Z,1.43
2022-12-13T07:38:36.973Z,2.00
2022-12-13T07:39:39.945Z,1.43
2022-12-13T07:40:43.478Z,1.00
2022-12-13T07:41:46.723Z,1.00
2022-12-13T07:42:50.014Z,0.71
2022-12-13T07:43:54.943Z,0.43
2022-12-13T07:44:58.013Z,1.50
2022-12-13T07:46:01.446Z,1.29
2022-12-13T07:47:04.716Z,0.57
2022-12-13T07:48:08.072Z,0.86
2022-12-13T07:49:11.346Z,1.57
2022-12-13T07:51:30.817Z,1.00
2022-12-13T07:52:34.021Z,1.33
2022-12-13T07:53:37.191Z,1.83
2022-12-13T07:54:40.265Z,1.33
2022-12-13T07:55:43.454Z,0.33
2022-12-13T07:56:46.644Z,0.00
2022-12-13T07:57:50.025Z,0.86
2022-12-13T07:58:53.414Z,1.43
2022-12-13T07:59:56.491Z,1.00
2022-12-13T08:00:59.572Z,1.00
2022-12-13T08:02:02.812Z,1.00
2022-12-13T08:03:06.007Z,1.00
2022-12-13T08:04:09.324Z,0.86
2022-12-13T08:06:28.485Z,1.00
2022-12-13T08:07:31.661Z,0.14
2022-12-13T08:08:34.684Z,0.00
2022-12-13T08:09:37.930Z,1.14
2022-12-13T08:10:41.202Z,2.00
2022-12-13T08:11:44.390Z,1.00
2022-12-13T08:12:47.467Z,1.17
2022-12-13T08:13:50.571Z,1.83
2022-12-13T08:14:53.662Z,2.00
2022-12-13T08:15:56.894Z,1.57
2022-12-13T08:16:59.986Z,2.71
2022-12-13T08:19:19.660Z,0.88
2022-12-13T08:20:22.882Z,1.29
2022-12-13T08:21:52.498Z,1.43
2022-12-13T08:22:36.033Z,1.50
2022-12-13T08:23:35.256Z,1.37
2022-12-13T08:24:38.699Z,1.14
2022-12-13T08:25:42.522Z,0.57
2022-12-13T08:26:46.220Z,1.86
2022-12-13T08:27:49.628Z,2.00
2022-12-13T08:28:53.001Z,1.00
2022-12-13T08:29:56.494Z,1.00
2022-12-13T08:31:00.130Z,1.00
2022-12-13T08:32:03.665Z,1.37
2022-12-13T08:33:07.364Z,1.57
2022-12-13T08:34:10.896Z,1.57
2022-12-13T08:35:14.011Z,0.57
2022-12-13T08:36:17.521Z,0.43
2022-12-13T08:38:37.299Z,1.25
2022-12-13T08:39:40.786Z,1.29
2022-12-13T08:40:44.284Z,2.29
2022-12-13T08:41:47.635Z,2.43
2022-12-13T08:42:50.947Z,0.57
2022-12-13T08:43:54.533Z,0.86
2022-12-13T08:44:58.444Z,1.00
2022-12-13T08:46:02.133Z,1.29
2022-12-13T08:47:05.720Z,2.43
2022-12-13T08:48:09.321Z,1.14
2022-12-13T08:49:12.861Z,2.00
2022-12-13T08:50:16.800Z,3.14
2022-12-13T08:51:25.067Z,2.00
2022-12-13T08:52:25.215Z,1.00
2022-12-13T08:53:31.757Z,0.50
2022-12-13T08:54:33.524Z,1.00
2022-12-13T08:55:37.215Z,1.00
2022-12-13T08:56:43.638Z,1.57
2022-12-13T08:57:45.222Z,2.00
2022-12-13T08:58:48.436Z,0.86
2022-12-13T08:59:51.787Z,0.86
2022-12-13T09:02:12.197Z,2.50
2022-12-13T09:03:15.671Z,1.57
2022-12-13T09:04:19.361Z,1.00
2022-12-13T09:05:34.269Z,1.25
2022-12-13T09:06:28.605Z,1.00
2022-12-13T09:07:32.289Z,1.00
2022-12-13T09:08:35.694Z,2.14
2022-12-13T09:09:39.366Z,1.00
2022-12-13T09:12:00.085Z,1.50
2022-12-13T09:13:03.870Z,2.00
2022-12-13T09:14:08.480Z,2.50
2022-12-13T09:15:22.172Z,2.50
2022-12-13T09:16:23.799Z,1.50
2022-12-13T09:17:24.456Z,2.50
2022-12-13T09:18:36.270Z,2.50
2022-12-13T09:19:37.183Z,2.87
2022-12-13T09:20:40.776Z,1.75
2022-12-13T09:21:42.967Z,3.00
2022-12-13T09:22:45.067Z,2.75
2022-12-13T09:23:48.601Z,2.43
2022-12-13T09:24:51.970Z,2.67
2022-12-13T09:25:55.868Z,2.00
2022-12-13T09:26:59.564Z,2.43
2022-12-13T09:28:03.154Z,3.50
2022-12-13T09:29:10.285Z,2.57
2022-12-13T09:30:11.291Z,2.00
2022-12-13T09:31:15.035Z,1.57
2022-12-13T09:32:18.647Z,1.71
2022-12-13T09:33:30.552Z,2.12
2022-12-13T09:34:26.979Z,2.50
2022-12-13T09:36:37.929Z,1.50
2022-12-13T09:38:57.500Z,1.00
2022-12-13T09:40:16.448Z,1.43
2022-12-13T09:41:05.298Z,1.50
2022-12-13T09:42:10.323Z,2.00
2022-12-13T09:43:21.993Z,2.50
2022-12-13T09:44:32.677Z,2.00
2022-12-13T09:46:44.253Z,1.50
2022-12-13T09:47:47.199Z,2.00
2022-12-13T09:48:48.602Z,3.00
2022-12-13T09:49:53.615Z,2.50
2022-12-13T09:51:17.024Z,3.00
2022-12-13T09:52:10.731Z,2.87
2022-12-13T09:53:05.588Z,3.00
2022-12-13T09:54:09.867Z,2.50
2022-12-13T09:55:13.287Z,1.71
2022-12-13T09:56:16.780Z,1.86
2022-12-13T09:57:32.003Z,2.57
2022-12-13T09:58:25.181Z,2.00
2022-12-13T09:59:29.091Z,2.50
2022-12-13T10:00:32.552Z,3.00
2022-12-13T10:01:35.892Z,3.00
2022-12-13T10:02:39.563Z,3.00
2022-12-13T10:03:43.062Z,3.86
2022-12-13T10:04:46.430Z,3.57
2022-12-13T10:07:06.004Z,3.00
2022-12-13T10:08:09.801Z,2.71
2022-12-13T10:09:13.390Z,1.86
2022-12-13T10:10:16.783Z,2.14
2022-12-13T10:11:20.369Z,2.43
2022-12-13T10:12:23.983Z,3.43
2022-12-13T10:13:27.449Z,4.86
2022-12-13T10:14:31.141Z,4.57
2022-12-13T10:15:34.427Z,1.86
2022-12-13T10:16:38.188Z,3.00
2022-12-13T10:17:41.636Z,3.87
2022-12-13T10:18:45.339Z,3.57
2022-12-13T10:19:48.796Z,3.50
2022-12-13T10:20:52.180Z,3.57
2022-12-13T10:22:01.365Z,3.43
2022-12-13T10:23:31.439Z,3.50
2022-12-13T10:24:25.204Z,2.25
2022-12-13T10:25:10.949Z,2.50
2022-12-13T10:26:14.543Z,4.00
2022-12-13T10:27:19.052Z,4.25
2022-12-13T10:28:22.540Z,3.14
2022-12-13T10:29:26.250Z,2.57
2022-12-13T10:30:29.872Z,2.00
2022-12-13T10:31:33.671Z,2.86
2022-12-13T10:32:37.509Z,3.50
2022-12-13T10:34:58.017Z,2.00
2022-12-13T10:36:01.408Z,1.00
2022-12-13T10:37:04.998Z,2.43
2022-12-13T10:38:08.999Z,2.57
2022-12-13T10:39:12.501Z,1.00
2022-12-13T10:40:16.372Z,2.43
2022-12-13T10:41:21.101Z,3.50
2022-12-13T10:42:26.841Z,3.00
2022-12-13T10:43:29.110Z,2.00
2022-12-13T10:44:32.696Z,2.00
2022-12-13T10:45:36.435Z,2.00
2022-12-13T10:46:39.979Z,2.00
2022-12-13T10:47:43.737Z,1.75
2022-12-13T10:48:47.182Z,2.00
2022-12-13T10:49:50.755Z,2.43
2022-12-13T10:50:55.317Z,3.25
2022-12-13T10:51:58.785Z,2.57
2022-12-13T10:53:02.168Z,1.57
2022-12-13T10:54:05.425Z,1.43
2022-12-13T10:56:25.310Z,2.37
2022-12-13T10:57:28.921Z,3.12
2022-12-13T10:58:32.827Z,4.57
2022-12-13T10:59:36.190Z,3.25
2022-12-13T11:00:39.995Z,3.00
2022-12-13T11:01:43.435Z,2.50
2022-12-13T11:02:46.583Z,2.14
2022-12-13T11:03:49.728Z,2.00
2022-12-13T11:04:53.117Z,1.57
2022-12-13T11:05:56.721Z,1.86
2022-12-13T11:07:00.808Z,1.86
2022-12-13T11:08:04.305Z,1.50
2022-12-13T11:09:07.689Z,2.00
2022-12-13T11:11:28.189Z,3.25
2022-12-13T11:12:31.570Z,2.33
2022-12-13T11:13:34.754Z,1.33
2022-12-13T11:14:43.252Z,2.43
2022-12-13T11:15:42.506Z,2.00
2022-12-13T11:16:45.957Z,2.86
2022-12-13T11:17:49.320Z,3.57
2022-12-13T11:18:53.024Z,2.43
2022-12-13T11:19:56.619Z,1.57
2022-12-13T11:21:00.103Z,2.00
2022-12-13T11:22:03.595Z,1.29
2022-12-13T11:23:07.312Z,1.86
2022-12-13T11:24:10.729Z,2.12
2022-12-13T11:25:14.054Z,1.86
2022-12-13T11:26:17.444Z,2.00
2022-12-13T11:27:22.020Z,1.25
2022-12-13T11:28:26.270Z,1.50
2022-12-13T11:29:30.464Z,2.50
2022-12-13T11:30:33.814Z,3.50
2022-12-13T11:31:37.339Z,3.14
2022-12-13T11:33:57.222Z,2.50
2022-12-13T11:35:00.810Z,4.00
2022-12-13T11:36:04.897Z,3.50
2022-12-13T11:37:08.101Z,3.14
2022-12-13T11:38:11.387Z,3.14
2022-12-13T11:39:14.870Z,2.86
2022-12-13T11:40:18.360Z,4.00
2022-12-13T11:41:32.036Z,3.00
2022-12-13T11:42:25.964Z,3.00
2022-12-13T11:43:29.001Z,2.14
2022-12-13T11:44:32.427Z,1.71
2022-12-13T11:45:35.654Z,2.86
2022-12-13T11:46:38.912Z,2.43
2022-12-13T11:47:42.167Z,2.43
2022-12-13T11:48:45.554Z,2.86
2022-12-13T11:50:04.408Z,1.57
2022-12-13T11:51:08.004Z,1.00
2022-12-13T11:52:11.384Z,1.25
2022-12-13T11:53:14.752Z,1.43
2022-12-13T11:54:23.933Z,1.29
2022-12-13T11:55:22.981Z,3.00
2022-12-13T11:56:26.570Z,3.14
2022-12-13T11:57:29.958Z,2.29
2022-12-13T11:59:01.355Z,0.86
2022-12-13T11:59:39.529Z,1.50
2022-12-13T12:00:42.785Z,2.00
2022-12-13T12:01:45.824Z,2.00
2022-12-13T12:02:49.006Z,2.67
2022-12-13T12:03:52.254Z,2.71
2022-12-13T12:05:00.183Z,1.43
2022-12-13T12:06:00.120Z,1.50
2022-12-13T12:07:24.356Z,2.50
2022-12-13T12:08:32.299Z,3.00
2022-12-13T12:09:13.044Z,2.00
2022-12-13T12:10:16.444Z,2.14
2022-12-13T12:11:19.729Z,2.14
2022-12-13T12:12:23.091Z,1.86
2022-12-13T12:13:26.700Z,3.14
2022-12-13T12:14:30.287Z,2.50
2022-12-13T12:16:44.327Z,2.12
2022-12-13T12:17:47.522Z,1.43
2022-12-13T12:18:50.793Z,2.00
2022-12-13T12:19:54.052Z,2.33
2022-12-13T12:20:57.265Z,3.33
2022-12-13T12:22:15.840Z,3.14
2022-12-13T12:23:05.004Z,1.62
2022-12-13T12:25:21.766Z,3.00
2022-12-13T12:26:25.277Z,2.14
2022-12-13T12:27:28.558Z,2.12
2022-12-13T12:28:32.034Z,1.29
2022-12-13T12:29:35.731Z,1.43
2022-12-13T12:30:39.430Z,2.43
2022-12-13T12:31:50.392Z,2.86
2022-12-13T12:32:47.520Z,3.25
2022-12-13T12:33:51.109Z,3.00
2022-12-13T12:34:54.699Z,2.86
2022-12-13T12:35:58.093Z,4.43
2022-12-13T12:37:03.155Z,2.71
2022-12-13T12:38:06.431Z,2.37
2022-12-13T12:39:09.262Z,2.57
2022-12-13T12:40:12.198Z,2.14
2022-12-13T12:41:17.120Z,2.33
2022-12-13T12:42:19.243Z,2.50
2022-12-13T12:43:21.838Z,2.57
2022-12-13T12:44:30.763Z,1.67
2022-12-13T12:45:55.145Z,2.00
2022-12-13T12:46:38.463Z,2.00
2022-12-13T12:48:08.992Z,3.29
2022-12-13T12:48:58.526Z,3.29
2022-12-13T12:49:43.683Z,2.25
2022-12-13T12:50:46.311Z,2.67
2022-12-13T12:51:48.828Z,3.00
2022-12-13T12:52:51.444Z,3.33
2022-12-13T12:53:53.990Z,3.86
2022-12-13T12:54:56.508Z,3.17
2022-12-13T12:55:59.232Z,4.00
2022-12-13T12:57:02.062Z,2.33
2022-12-13T12:58:04.862Z,1.67
2022-12-13T12:59:07.691Z,2.50
2022-12-13T13:00:10.542Z,3.00
2022-12-13T13:01:13.473Z,1.43
2022-12-13T13:02:16.440Z,2.00
2022-12-13T13:03:22.584Z,1.33
2022-12-13T13:04:23.400Z,2.50
2022-12-13T13:05:26.158Z,2.33
2022-12-13T13:06:29.029Z,2.43
2022-12-13T13:07:31.602Z,1.33
2022-12-13T13:08:35.761Z,2.00
2022-12-13T13:09:38.593Z,2.00
2022-12-13T13:10:41.260Z,1.57
2022-12-13T13:11:45.002Z,1.86
2022-12-13T13:12:47.533Z,3.33
2022-12-13T13:13:50.142Z,3.67
2022-12-13T13:14:52.889Z,2.67
2022-12-13T13:15:55.490Z,2.00
2022-12-13T13:16:58.083Z,1.67
2022-12-13T13:18:00.620Z,1.33
2022-12-13T13:19:03.162Z,2.33
2022-12-13T13:20:14.709Z,2.50
2022-12-13T13:21:09.639Z,2.71
2022-12-13T13:22:31.512Z,3.00
2022-12-13T13:23:39.543Z,1.37
2022-12-13T13:24:19.866Z,1.43
2022-12-13T13:25:22.467Z,2.00
2022-12-13T13:26:29.278Z,2.00
2022-12-13T13:27:28.963Z,1.57
2022-12-13T13:28:31.546Z,1.33
2022-12-13T13:29:34.071Z,2.67
2022-12-13T13:30:36.684Z,3.67
2022-12-13T13:31:39.265Z,2.00
2022-12-13T13:32:41.871Z,3.00
2022-12-13T13:33:44.440Z,2.50
2022-12-13T13:34:46.891Z,2.80
2022-12-13T13:35:49.503Z,2.00
2022-12-13T13:36:51.962Z,2.00
2022-12-13T13:37:54.435Z,2.00
2022-12-13T13:39:01.673Z,1.67
2022-12-13T13:40:00.935Z,2.29
2022-12-13T13:41:03.878Z,4.00
2022-12-13T13:42:06.831Z,2.83
2022-12-13T13:43:09.670Z,2.00
2022-12-13T13:44:12.512Z,2.00
2022-12-13T13:45:16.542Z,3.62
2022-12-13T13:46:19.638Z,4.57
2022-12-13T13:47:22.465Z,2.83
2022-12-13T13:48:25.220Z,3.57
2022-12-13T13:49:31.568Z,3.33
2022-12-13T13:50:32.335Z,3.00
2022-12-13T13:51:36.626Z,3.29
2022-12-13T13:52:39.261Z,5.12
2022-12-13T13:53:42.131Z,4.00
2022-12-13T13:54:44.886Z,2.00
2022-12-13T13:55:47.497Z,3.67
2022-12-13T13:56:50.472Z,4.00
2022-12-13T13:58:09.792Z,2.29
2022-12-13T13:58:57.009Z,2.57
2022-12-13T13:59:59.780Z,2.33
2022-12-13T14:01:02.643Z,2.83
2022-12-13T14:02:05.544Z,3.67
2022-12-13T14:03:22.064Z,3.00
2022-12-13T14:04:12.483Z,3.37
2022-12-13T14:05:15.271Z,3.67
2022-12-13T14:06:18.231Z,3.43
2022-12-13T14:07:26.434Z,4.00
2022-12-13T14:08:25.210Z,4.75
2022-12-13T14:09:28.060Z,3.57
2022-12-13T14:10:30.924Z,3.33
2022-12-13T14:11:33.785Z,3.14
2022-12-13T14:12:36.711Z,2.33
2022-12-13T14:13:44.855Z,4.71
2022-12-13T14:14:49.942Z,4.00
2022-12-13T14:15:49.489Z,2.25
2022-12-13T14:16:51.566Z,4.00
2022-12-13T14:17:54.331Z,3.83
2022-12-13T14:18:56.851Z,3.17
2022-12-13T14:19:59.474Z,2.67
2022-12-13T14:21:02.067Z,2.33
2022-12-13T14:22:04.670Z,2.17
2022-12-13T14:23:07.434Z,2.33
2022-12-13T14:24:09.971Z,3.00
2022-12-13T14:25:12.673Z,2.67
2022-12-13T14:26:15.158Z,2.67
2022-12-13T14:27:17.884Z,3.80
2022-12-13T14:28:20.618Z,2.57
2022-12-13T14:29:23.591Z,2.67
2022-12-13T14:30:28.384Z,4.00
2022-12-13T14:31:30.425Z,3.14
2022-12-13T14:32:33.238Z,2.33
2022-12-13T14:33:36.258Z,3.43
2022-12-13T14:34:39.026Z,3.33
2022-12-13T14:35:41.873Z,3.43
2022-12-13T14:36:49.469Z,3.67
2022-12-13T14:37:48.464Z,5.00
2022-12-13T14:38:51.140Z,3.67
2022-12-13T14:39:53.726Z,3.00
2022-12-13T14:40:56.370Z,2.71
2022-12-13T14:41:58.987Z,3.33
2022-12-13T14:43:01.769Z,3.67
2022-12-13T14:44:04.619Z,3.00
2022-12-13T14:45:07.493Z,3.57
2022-12-13T14:46:10.337Z,4.17